createdAt,value
2019-06-01T00:02:16.185Z,11.37
2019-06-01T00:04:45.244Z,10.20
2019-06-01T00:07:13.422Z,10.90
2019-06-01T00:09:41.496Z,10.43
2019-06-01T00:12:09.594Z,9.73
2019-06-01T00:14:37.735Z,9.67
2019-06-01T00:17:05.435Z,8.27
2019-06-01T00:19:33.324Z,9.57
2019-06-01T00:22:00.986Z,8.80
2019-06-01T00:24:28.648Z,8.20
2019-06-01T00:26:56.697Z,6.53
2019-06-01T00:29:24.439Z,7.53
2019-06-01T00:31:54.163Z,6.77
2019-06-01T00:34:21.828Z,9.10
2019-06-01T00:36:49.935Z,8.33
2019-06-01T00:39:18.134Z,8.53
2019-06-01T00:41:45.983Z,7.87
2019-06-01T00:44:14.070Z,9.67
2019-06-01T00:46:42.522Z,8.47
2019-06-01T00:49:10.768Z,9.03
2019-06-01T00:51:38.679Z,9.50
2019-06-01T00:54:06.778Z,10.10
2019-06-01T00:56:34.985Z,6.40
2019-06-01T00:59:03.001Z,4.33
2019-06-01T01:01:31.099Z,6.10
2019-06-01T01:03:58.861Z,6.07
2019-06-01T01:06:26.511Z,8.70
2019-06-01T01:08:55.318Z,10.03
2019-06-01T01:11:23.151Z,7.37
2019-06-01T01:13:51.363Z,6.80
2019-06-01T01:16:19.575Z,6.93
2019-06-01T01:18:47.780Z,9.03
2019-06-01T01:21:15.560Z,8.60
2019-06-01T01:23:43.240Z,9.50
2019-06-01T01:26:11.045Z,8.43
2019-06-01T01:28:39.080Z,8.30
2019-06-01T01:31:13.924Z,8.00
2019-06-01T01:33:36.066Z,9.03
2019-06-01T01:36:04.013Z,8.20
2019-06-01T01:38:31.687Z,8.17
2019-06-01T01:40:59.539Z,8.47
2019-06-01T01:43:27.488Z,8.47
2019-06-01T01:45:56.863Z,7.80
2019-06-01T01:48:25.102Z,7.57
2019-06-01T01:50:52.765Z,8.63
2019-06-01T01:53:20.892Z,8.43
2019-06-01T01:55:48.986Z,7.70
2019-06-01T01:58:16.661Z,7.33
2019-06-01T02:00:45.401Z,7.53
2019-06-01T02:03:13.482Z,9.13
2019-06-01T02:05:41.357Z,9.37
2019-06-01T02:08:09.539Z,9.07
2019-06-01T02:10:37.711Z,7.67
2019-06-01T02:13:05.677Z,7.80
2019-06-01T02:15:33.489Z,7.53
2019-06-01T02:18:02.747Z,7.43
2019-06-01T02:20:30.569Z,7.37
2019-06-01T02:22:58.964Z,8.23
2019-06-01T02:25:26.706Z,8.70
2019-06-01T02:27:55.029Z,9.20
2019-06-01T02:30:22.945Z,10.13
2019-06-01T02:32:51.022Z,9.77
2019-06-01T02:35:18.856Z,9.20
2019-06-01T02:37:46.518Z,9.10
2019-06-01T02:40:14.603Z,10.03
2019-06-01T02:42:42.301Z,9.53
2019-06-01T02:45:13.271Z,9.60
2019-06-01T02:47:41.031Z,9.40
2019-06-01T02:50:09.058Z,9.93
2019-06-01T02:52:37.225Z,10.10
2019-06-01T02:55:09.740Z,9.87
2019-06-01T02:57:37.498Z,10.50
2019-06-01T03:00:06.749Z,11.10
2019-06-01T03:02:34.994Z,10.00
2019-06-01T03:05:03.303Z,9.60
2019-06-01T03:07:31.916Z,10.77
2019-06-01T03:10:01.091Z,10.90
2019-06-01T03:12:30.285Z,12.00
2019-06-01T03:15:00.386Z,13.90
2019-06-01T03:17:29.874Z,10.17
2019-06-01T03:19:59.539Z,9.47
2019-06-01T03:22:28.765Z,9.50
2019-06-01T03:24:58.034Z,9.90
2019-06-01T03:27:27.141Z,9.20
2019-06-01T03:29:57.931Z,10.00
2019-06-01T03:32:36.114Z,10.87
2019-06-01T03:34:55.342Z,10.97
2019-06-01T03:37:23.522Z,11.57
2019-06-01T03:39:51.233Z,10.67
2019-06-01T03:42:18.963Z,12.43
2019-06-01T03:44:47.156Z,14.53
2019-06-01T03:47:14.793Z,12.60
2019-06-01T03:49:42.809Z,13.40
2019-06-01T03:52:10.495Z,13.93
2019-06-01T03:54:38.779Z,13.53
2019-06-01T03:57:07.280Z,14.50
2019-06-01T03:59:35.422Z,15.33
2019-06-01T04:02:03.135Z,14.13
2019-06-01T04:04:31.282Z,13.27
2019-06-01T04:06:58.994Z,15.10
2019-06-01T04:09:27.076Z,18.00
2019-06-01T04:11:54.744Z,16.27
2019-06-01T04:14:22.467Z,14.00
2019-06-01T04:16:50.569Z,14.63
2019-06-01T04:19:18.249Z,13.97
2019-06-01T04:21:46.268Z,14.83
2019-06-01T04:24:14.341Z,13.93
2019-06-01T04:26:42.353Z,16.23
2019-06-01T04:29:10.386Z,16.10
2019-06-01T04:31:38.855Z,15.23
2019-06-01T04:34:06.933Z,14.83
2019-06-01T04:36:35.036Z,15.63
2019-06-01T04:39:03.426Z,16.30
2019-06-01T04:41:31.199Z,17.27
2019-06-01T04:43:59.256Z,16.97
2019-06-01T04:46:27.346Z,16.73
2019-06-01T04:48:55.427Z,16.57
2019-06-01T04:51:23.458Z,17.00
2019-06-01T04:53:51.158Z,18.37
2019-06-01T04:56:18.784Z,16.93
2019-06-01T04:58:46.470Z,16.53
2019-06-01T05:01:15.134Z,17.23
2019-06-01T05:03:42.836Z,16.57
2019-06-01T05:06:11.357Z,15.37
2019-06-01T05:08:39.315Z,13.00
2019-06-01T05:11:08.654Z,13.37
2019-06-01T05:13:37.147Z,12.73
2019-06-01T05:16:05.893Z,12.33
2019-06-01T05:18:33.673Z,12.07
2019-06-01T05:21:01.380Z,10.73
2019-06-01T05:23:29.386Z,12.30
2019-06-01T05:25:57.095Z,11.33
2019-06-01T05:28:25.198Z,11.07
2019-06-01T05:30:52.840Z,10.30
2019-06-01T05:33:35.264Z,9.97
2019-06-01T05:35:50.367Z,11.03
2019-06-01T05:38:18.661Z,9.27
2019-06-01T05:40:46.329Z,8.23
2019-06-01T05:43:17.600Z,8.33
2019-06-01T05:45:43.720Z,8.33
2019-06-01T05:48:13.125Z,8.77
2019-06-01T05:50:41.562Z,9.30
2019-06-01T05:53:10.439Z,9.57
2019-06-01T05:55:38.687Z,8.70
2019-06-01T05:58:06.784Z,8.70
2019-06-01T06:00:38.406Z,9.10
2019-06-01T06:03:06.152Z,8.33
2019-06-01T06:05:33.855Z,45.97
2019-06-01T06:08:01.525Z,48.33
2019-06-01T06:10:29.751Z,33.43
2019-06-01T06:12:57.554Z,19.40
2019-06-01T06:15:25.297Z,25.17
2019-06-01T06:17:53.354Z,22.10
2019-06-01T06:20:22.209Z,13.43
2019-06-01T06:22:50.364Z,24.33
2019-06-01T06:25:18.388Z,9.27
2019-06-01T06:27:46.020Z,16.07
2019-06-01T06:30:14.772Z,6.87
2019-06-01T06:32:42.586Z,6.60
2019-06-01T06:35:10.309Z,5.03
2019-06-01T06:37:38.225Z,6.40
2019-06-01T06:40:07.256Z,6.93
2019-06-01T06:42:34.946Z,11.43
2019-06-01T06:45:03.790Z,9.50
2019-06-01T06:47:31.555Z,4.40
2019-06-01T06:49:59.764Z,5.37
2019-06-01T06:52:27.608Z,5.37
2019-06-01T06:54:55.699Z,2.90
2019-06-01T06:57:24.253Z,3.47
2019-06-01T06:59:52.245Z,3.57
2019-06-01T07:02:20.851Z,3.50
2019-06-01T07:04:48.704Z,3.00
2019-06-01T07:07:17.501Z,3.00
2019-06-01T07:09:45.678Z,2.47
2019-06-01T07:12:14.305Z,2.87
2019-06-01T07:14:42.011Z,3.40
2019-06-01T07:17:09.665Z,2.50
2019-06-01T07:19:37.907Z,2.70
2019-06-01T07:22:06.051Z,2.30
2019-06-01T07:24:34.070Z,2.70
2019-06-01T07:27:01.842Z,2.20
2019-06-01T07:29:29.915Z,2.57
2019-06-01T07:31:58.036Z,3.33
2019-06-01T07:34:37.267Z,2.43
2019-06-01T07:36:55.954Z,2.03
2019-06-01T07:39:24.834Z,2.93
2019-06-01T07:41:52.792Z,3.67
2019-06-01T07:44:20.923Z,3.10
2019-06-01T07:46:49.056Z,2.40
2019-06-01T07:49:16.788Z,2.60
2019-06-01T07:51:44.832Z,2.53
2019-06-01T07:54:12.684Z,2.70
2019-06-01T07:56:40.602Z,3.63
2019-06-01T07:59:08.717Z,3.03
2019-06-01T08:01:36.859Z,3.67
2019-06-01T08:04:05.456Z,2.50
2019-06-01T08:06:33.530Z,2.60
2019-06-01T08:09:01.315Z,3.30
2019-06-01T08:11:32.738Z,3.37
2019-06-01T08:13:58.770Z,3.07
2019-06-01T08:16:27.894Z,2.53
2019-06-01T08:18:55.875Z,2.80
2019-06-01T08:21:23.972Z,2.50
2019-06-01T08:23:52.138Z,4.37
2019-06-01T08:26:20.124Z,2.57
2019-06-01T08:28:47.992Z,1.90
2019-06-01T08:31:15.751Z,2.13
2019-06-01T08:33:43.437Z,2.13
2019-06-01T08:36:11.109Z,17.40
2019-06-01T08:38:39.249Z,44.13
2019-06-01T08:41:07.313Z,24.83
2019-06-01T08:43:35.063Z,12.93
2019-06-01T08:46:03.187Z,6.50
2019-06-01T08:48:31.858Z,3.03
2019-06-01T08:50:59.654Z,3.17
2019-06-01T08:53:27.894Z,3.00
2019-06-01T08:55:56.285Z,4.20
2019-06-01T08:58:24.251Z,3.50
2019-06-01T09:00:51.914Z,2.33
2019-06-01T09:03:19.936Z,3.93
2019-06-01T09:05:47.597Z,4.80
2019-06-01T09:08:15.790Z,3.90
2019-06-01T09:10:43.465Z,3.80
2019-06-01T09:13:11.686Z,2.77
2019-06-01T09:15:39.478Z,3.20
2019-06-01T09:18:07.515Z,2.90
2019-06-01T09:20:38.739Z,3.00
2019-06-01T09:23:05.356Z,2.90
2019-06-01T09:25:33.814Z,2.93
2019-06-01T09:28:01.694Z,2.97
2019-06-01T09:30:29.916Z,3.17
2019-06-01T09:32:57.757Z,2.90
2019-06-01T09:35:45.955Z,2.50
2019-06-01T09:37:55.364Z,3.23
2019-06-01T09:40:23.519Z,2.67
2019-06-01T09:42:51.211Z,2.87
2019-06-01T09:45:18.889Z,2.93
2019-06-01T09:47:46.941Z,2.60
2019-06-01T09:50:15.049Z,2.33
2019-06-01T09:52:42.796Z,2.43
2019-06-01T09:55:10.740Z,4.30
2019-06-01T09:57:38.701Z,9.80
2019-06-01T10:00:10.130Z,5.63
2019-06-01T10:02:38.364Z,4.70
2019-06-01T10:05:06.612Z,3.33
2019-06-01T10:07:34.858Z,2.73
2019-06-01T10:10:02.802Z,2.83
2019-06-01T10:12:30.480Z,2.53
2019-06-01T10:14:58.654Z,2.87
2019-06-01T10:17:26.343Z,3.03
2019-06-01T10:19:54.465Z,3.23
2019-06-01T10:22:22.647Z,2.83
2019-06-01T10:24:50.309Z,2.90
2019-06-01T10:27:18.448Z,2.50
2019-06-01T10:29:46.216Z,2.47
2019-06-01T10:32:13.877Z,2.73
2019-06-01T10:34:42.059Z,2.47
2019-06-01T10:37:09.691Z,2.40
2019-06-01T10:39:37.348Z,2.83
2019-06-01T10:42:05.574Z,3.52
2019-06-01T10:44:37.895Z,3.17
2019-06-01T10:47:03.010Z,2.60
2019-06-01T10:49:31.827Z,3.07
2019-06-01T10:52:00.015Z,2.57
2019-06-01T10:54:27.670Z,2.97
2019-06-01T10:56:55.930Z,2.40
2019-06-01T10:59:23.947Z,2.40
2019-06-01T11:01:51.919Z,2.67
2019-06-01T11:04:19.620Z,1.90
2019-06-01T11:06:48.844Z,2.27
2019-06-01T11:09:17.162Z,2.03
2019-06-01T11:11:44.959Z,2.97
2019-06-01T11:14:12.701Z,3.07
2019-06-01T11:16:41.768Z,2.50
2019-06-01T11:19:10.020Z,2.90
2019-06-01T11:21:37.705Z,3.00
2019-06-01T11:24:05.595Z,2.60
2019-06-01T11:26:33.540Z,2.57
2019-06-01T11:29:01.346Z,2.67
2019-06-01T11:31:29.416Z,2.90
2019-06-01T11:33:57.046Z,2.77
2019-06-01T11:36:24.850Z,2.70
2019-06-01T11:38:53.019Z,2.37
2019-06-01T11:41:21.112Z,2.90
2019-06-01T11:43:49.291Z,2.87
2019-06-01T11:46:17.315Z,3.63
2019-06-01T11:48:45.406Z,3.03
2019-06-01T11:51:13.347Z,2.90
2019-06-01T11:53:41.512Z,3.20
2019-06-01T11:56:09.781Z,3.20
2019-06-01T11:58:37.845Z,3.40
2019-06-01T12:01:06.224Z,3.57
2019-06-01T12:03:35.520Z,3.57
2019-06-01T12:06:03.380Z,3.80
2019-06-01T12:08:33.975Z,3.30
2019-06-01T12:11:00.981Z,3.33
2019-06-01T12:13:29.126Z,3.00
2019-06-01T12:15:57.554Z,3.60
2019-06-01T12:18:25.325Z,2.90
2019-06-01T12:20:53.703Z,3.60
2019-06-01T12:23:21.450Z,2.77
2019-06-01T12:25:50.371Z,2.63
2019-06-01T12:28:17.997Z,2.97
2019-06-01T12:30:45.982Z,3.00
2019-06-01T12:33:14.281Z,2.43
2019-06-01T12:35:42.050Z,3.10
2019-06-01T12:38:11.339Z,2.85
2019-06-01T12:40:39.778Z,3.10
2019-06-01T12:43:07.982Z,2.90
2019-06-01T12:45:36.096Z,3.23
2019-06-01T12:48:03.812Z,3.03
2019-06-01T12:50:31.495Z,4.10
2019-06-01T12:52:59.163Z,3.60
2019-06-01T12:55:27.579Z,3.77
2019-06-01T12:57:55.465Z,4.27
2019-06-01T13:00:23.667Z,3.80
2019-06-01T13:03:03.449Z,3.37
2019-06-01T13:05:22.414Z,3.87
2019-06-01T13:07:58.555Z,3.37
2019-06-01T13:10:19.466Z,3.37
2019-06-01T13:12:47.619Z,3.03
2019-06-01T13:15:15.805Z,3.00
2019-06-01T13:17:45.138Z,3.20
2019-06-01T13:20:13.040Z,3.13
2019-06-01T13:22:41.303Z,3.47
2019-06-01T13:25:09.733Z,2.60
2019-06-01T13:27:40.667Z,2.93
2019-06-01T13:30:07.557Z,3.10
2019-06-01T13:32:35.803Z,3.70
2019-06-01T13:35:05.817Z,3.10
2019-06-01T13:37:33.480Z,2.83
2019-06-01T13:40:01.585Z,2.90
2019-06-01T13:42:29.947Z,2.93
2019-06-01T13:44:57.838Z,2.87
2019-06-01T13:47:25.630Z,3.30
2019-06-01T13:49:54.139Z,2.83
2019-06-01T13:52:21.924Z,2.93
2019-06-01T13:54:50.603Z,3.27
2019-06-01T13:57:18.973Z,2.93
2019-06-01T13:59:48.677Z,3.07
2019-06-01T14:02:17.114Z,2.43
2019-06-01T14:04:45.185Z,2.70
2019-06-01T14:07:13.310Z,2.93
2019-06-01T14:09:40.981Z,2.50
2019-06-01T14:12:08.881Z,2.63
2019-06-01T14:14:36.572Z,2.80
2019-06-01T14:17:04.358Z,11.97
2019-06-01T14:19:32.763Z,6.17
2019-06-01T14:22:00.860Z,2.83
2019-06-01T14:24:28.488Z,3.20
2019-06-01T14:26:56.363Z,3.23
2019-06-01T14:29:24.426Z,3.60
2019-06-01T14:31:53.521Z,3.70
2019-06-01T14:34:21.753Z,3.53
2019-06-01T14:36:50.508Z,12.57
2019-06-01T14:39:18.842Z,12.60
2019-06-01T14:41:46.710Z,4.30
2019-06-01T14:44:14.520Z,4.27
2019-06-01T14:46:53.552Z,22.67
2019-06-01T14:49:12.373Z,11.77
2019-06-01T14:51:40.351Z,6.90
2019-06-01T14:54:08.494Z,5.50
2019-06-01T14:56:36.116Z,4.63
2019-06-01T14:59:04.159Z,5.53
2019-06-01T15:01:33.248Z,4.33
2019-06-01T15:04:01.301Z,3.70
2019-06-01T15:06:29.347Z,3.73
2019-06-01T15:09:15.855Z,3.70
2019-06-01T15:11:27.183Z,2.70
2019-06-01T15:13:56.437Z,2.67
2019-06-01T15:16:24.291Z,3.27
2019-06-01T15:18:51.926Z,2.67
2019-06-01T15:21:20.103Z,3.17
2019-06-01T15:23:47.872Z,3.00
2019-06-01T15:26:15.527Z,2.97
2019-06-01T15:28:43.644Z,2.67
2019-06-01T15:31:11.351Z,2.70
2019-06-01T15:33:39.512Z,3.50
2019-06-01T15:36:07.188Z,3.07
2019-06-01T15:38:35.268Z,2.77
2019-06-01T15:41:02.944Z,2.80
2019-06-01T15:43:30.570Z,3.10
2019-06-01T15:45:59.602Z,2.83
2019-06-01T15:48:27.964Z,3.60
2019-06-01T15:51:00.507Z,2.67
2019-06-01T15:53:24.975Z,2.70
2019-06-01T15:55:52.664Z,2.87
2019-06-01T15:58:20.417Z,3.00
2019-06-01T16:00:48.457Z,3.00
2019-06-01T16:03:16.280Z,2.83
2019-06-01T16:05:44.005Z,3.33
2019-06-01T16:08:11.722Z,3.00
2019-06-01T16:10:39.821Z,3.00
2019-06-01T16:13:07.781Z,2.70
2019-06-01T16:15:36.214Z,3.00
2019-06-01T16:18:04.310Z,2.60
2019-06-01T16:20:32.298Z,3.30
2019-06-01T16:23:00.325Z,3.10
2019-06-01T16:25:28.389Z,3.00
2019-06-01T16:27:56.653Z,3.10
2019-06-01T16:30:24.854Z,2.77
2019-06-01T16:32:52.971Z,2.63
2019-06-01T16:35:22.205Z,3.30
2019-06-01T16:37:49.885Z,2.93
2019-06-01T16:40:18.007Z,3.33
2019-06-01T16:42:45.689Z,3.70
2019-06-01T16:45:13.826Z,3.50
2019-06-01T16:47:41.536Z,4.93
2019-06-01T16:50:09.692Z,5.67
2019-06-01T16:52:37.973Z,5.47
2019-06-01T16:55:07.121Z,6.17
2019-06-01T16:57:35.426Z,6.03
2019-06-01T17:00:03.262Z,5.53
2019-06-01T17:02:31.870Z,6.00
2019-06-01T17:05:00.657Z,6.43
2019-06-01T17:07:28.514Z,6.77
2019-06-01T17:09:56.657Z,9.03
2019-06-01T17:12:24.994Z,6.77
2019-06-01T17:14:53.085Z,4.13
2019-06-01T17:17:21.222Z,4.63
2019-06-01T17:19:49.343Z,4.40
2019-06-01T17:22:17.037Z,4.50
2019-06-01T17:24:45.305Z,4.60
2019-06-01T17:27:12.938Z,4.13
2019-06-01T17:29:41.071Z,5.03
2019-06-01T17:32:20.126Z,5.27
2019-06-01T17:34:38.526Z,6.33
2019-06-01T17:37:06.853Z,4.87
2019-06-01T17:39:34.648Z,4.33
2019-06-01T17:42:02.945Z,6.27
2019-06-01T17:44:31.036Z,5.40
2019-06-01T17:46:59.895Z,5.43
2019-06-01T17:49:27.704Z,4.80
2019-06-01T17:51:55.754Z,4.70
2019-06-01T17:54:23.538Z,5.00
2019-06-01T17:56:51.333Z,5.53
2019-06-01T17:59:19.371Z,4.67
2019-06-01T18:01:47.070Z,4.63
2019-06-01T18:04:14.798Z,4.70
2019-06-01T18:06:42.416Z,5.40
2019-06-01T18:09:10.332Z,4.77
2019-06-01T18:11:38.509Z,5.30
2019-06-01T18:14:08.227Z,5.20
2019-06-01T18:16:36.323Z,4.13
2019-06-01T18:19:04.465Z,4.57
2019-06-01T18:21:33.494Z,5.33
2019-06-01T18:24:04.346Z,5.77
2019-06-01T18:26:31.080Z,5.23
2019-06-01T18:28:58.925Z,4.83
2019-06-01T18:31:27.063Z,4.67
2019-06-01T18:33:54.719Z,4.93
2019-06-01T18:36:22.777Z,5.10
2019-06-01T18:38:50.498Z,4.67
2019-06-01T18:41:20.185Z,4.63
2019-06-01T18:43:48.122Z,5.73
2019-06-01T18:46:16.336Z,6.23
2019-06-01T18:48:44.402Z,5.73
2019-06-01T18:51:12.630Z,6.20
2019-06-01T18:53:40.696Z,4.83
2019-06-01T18:56:10.078Z,5.97
2019-06-01T18:58:38.383Z,5.30
2019-06-01T19:01:06.828Z,9.77
2019-06-01T19:03:34.448Z,10.03
2019-06-01T19:06:02.180Z,12.93
2019-06-01T19:08:29.898Z,16.63
2019-06-01T19:10:57.585Z,11.70
2019-06-01T19:13:25.308Z,9.93
2019-06-01T19:15:53.371Z,10.57
2019-06-01T19:18:21.491Z,8.90
2019-06-01T19:20:49.113Z,9.27
2019-06-01T19:23:21.731Z,9.20
2019-06-01T19:25:46.540Z,8.60
2019-06-01T19:28:15.304Z,9.10
2019-06-01T19:30:43.863Z,8.60
2019-06-01T19:33:15.472Z,14.20
2019-06-01T19:35:41.312Z,19.07
2019-06-01T19:38:09.428Z,16.77
2019-06-01T19:40:38.122Z,10.57
2019-06-01T19:43:07.338Z,9.90
2019-06-01T19:45:35.725Z,11.00
2019-06-01T19:48:03.646Z,12.70
2019-06-01T19:50:31.695Z,11.27
2019-06-01T19:52:59.819Z,11.77
2019-06-01T19:55:27.921Z,10.57
2019-06-01T19:57:55.845Z,13.13
2019-06-01T20:00:25.110Z,10.43
2019-06-01T20:02:52.790Z,14.20
2019-06-01T20:05:20.499Z,16.23
2019-06-01T20:07:48.209Z,14.40
2019-06-01T20:10:16.350Z,15.30
2019-06-01T20:12:44.266Z,12.73
2019-06-01T20:15:13.189Z,12.40
2019-06-01T20:17:41.073Z,15.33
2019-06-01T20:20:10.631Z,11.07
2019-06-01T20:22:39.002Z,10.80
2019-06-01T20:25:07.064Z,8.13
2019-06-01T20:27:34.746Z,8.10
2019-06-01T20:30:02.466Z,9.63
2019-06-01T20:32:30.652Z,7.87
2019-06-01T20:34:58.702Z,9.30
2019-06-01T20:37:26.407Z,8.90
2019-06-01T20:39:54.670Z,8.23
2019-06-01T20:42:31.719Z,7.53
2019-06-01T20:44:52.188Z,9.47
2019-06-01T20:47:20.971Z,7.37
2019-06-01T20:49:49.098Z,7.23
2019-06-01T20:52:17.159Z,7.40
2019-06-01T20:54:44.796Z,7.13
2019-06-01T20:57:13.334Z,7.53
2019-06-01T20:59:41.105Z,8.27
2019-06-01T21:02:08.846Z,7.80
2019-06-01T21:04:36.533Z,7.33
2019-06-01T21:07:04.376Z,7.17
2019-06-01T21:09:32.425Z,7.27
2019-06-01T21:12:00.155Z,6.73
2019-06-01T21:14:28.072Z,7.30
2019-06-01T21:16:56.112Z,6.43
2019-06-01T21:19:24.464Z,6.57
2019-06-01T21:21:52.307Z,6.00
2019-06-01T21:24:21.125Z,6.57
2019-06-01T21:26:49.402Z,8.30
2019-06-01T21:29:18.733Z,10.07
2019-06-01T21:31:46.478Z,7.80
2019-06-01T21:34:15.085Z,7.57
2019-06-01T21:36:43.229Z,8.50
2019-06-01T21:39:11.488Z,6.23
2019-06-01T21:41:39.672Z,6.10
2019-06-01T21:44:07.391Z,8.47
2019-06-01T21:46:35.481Z,8.10
2019-06-01T21:49:03.480Z,9.37
2019-06-01T21:51:31.195Z,8.57
2019-06-01T21:53:58.942Z,10.77
2019-06-01T21:56:26.900Z,9.17
2019-06-01T21:58:54.711Z,8.10
2019-06-01T22:01:22.849Z,7.20
2019-06-01T22:03:51.357Z,8.63
2019-06-01T22:06:19.604Z,8.80
2019-06-01T22:08:52.663Z,7.40
2019-06-01T22:11:17.351Z,8.13
2019-06-01T22:13:45.065Z,9.30
2019-06-01T22:16:12.786Z,8.40
2019-06-01T22:18:40.755Z,8.07
2019-06-01T22:21:08.384Z,8.37
2019-06-01T22:23:36.352Z,7.57
2019-06-01T22:26:04.113Z,7.77
2019-06-01T22:28:31.816Z,7.50
2019-06-01T22:30:59.960Z,8.40
2019-06-01T22:33:28.818Z,8.07
2019-06-01T22:35:56.721Z,7.10
2019-06-01T22:38:25.701Z,5.83
2019-06-01T22:40:53.514Z,5.90
2019-06-01T22:43:36.822Z,5.87
2019-06-01T22:45:51.140Z,6.57
2019-06-01T22:48:18.827Z,6.90
2019-06-01T22:50:46.997Z,7.70
2019-06-01T22:53:14.743Z,7.77
2019-06-01T22:55:42.466Z,7.80
2019-06-01T22:58:10.580Z,7.00
2019-06-01T23:00:38.345Z,7.67
2019-06-01T23:03:07.198Z,7.83
2019-06-01T23:05:35.223Z,7.23
2019-06-01T23:08:02.933Z,7.03
2019-06-01T23:10:34.973Z,7.30
2019-06-01T23:13:00.501Z,6.17
2019-06-01T23:15:29.732Z,7.13
2019-06-01T23:17:57.848Z,8.40
2019-06-01T23:20:25.901Z,6.43
2019-06-01T23:22:54.073Z,6.80
2019-06-01T23:25:22.522Z,6.67
2019-06-01T23:27:50.420Z,8.00
2019-06-01T23:30:18.477Z,8.07
2019-06-01T23:32:46.211Z,7.40
2019-06-01T23:35:13.914Z,6.97
2019-06-01T23:37:41.584Z,8.40
2019-06-01T23:40:09.335Z,10.67
2019-06-01T23:42:36.997Z,8.70
2019-06-01T23:45:08.111Z,8.33
2019-06-01T23:47:36.351Z,7.53
2019-06-01T23:50:04.339Z,8.90
2019-06-01T23:52:31.992Z,8.27
2019-06-01T23:55:00.617Z,7.97
2019-06-01T23:57:30.070Z,7.90
2019-06-01T23:59:58.312Z,8.23
